Darstellungsparameter: Aktuell verwendete Einstellungen:
Skalierung der Graphiken ... ?
xyx+y,   Skalierungsfaktor:      Skalierung: Modus: x, Faktor: 1
Darstellungszeitraum ... ?
Vom - - bis: - -   Zeitraum: 18.05.2022 - 18.05.2022
Min/Max/Avg-Anzeige ... ?
Zeige MMA aktuell
Zeige MMA Monat
Zeige MMA alles
Zeige --A aktuell
Zeige --A Monat
Zeige --A alles
Keine MMA-Anzeige
MMA:
Average (ber die Originaldaten)
MMA-Basis: 18.05.2022 - 18.05.2022
Quicknavigation für Darstellung... ?
Tage:      1T, 2T, 3T, 5T -1T -2T -3T -5T +1T +2T +3T +5T
Wochen: 1W, 2W, 3W -1W -2W -3W +1W +2W +3W
Monate: 1M, 3M, 6M -1M -3M -6M +1M +3M +6M
Jahre:    1J, 3J, 5J, 10J -1J -3J -5J -10J +1J +3J +5J +10J
Nutze für die Darstellung ... ?
Originaldaten oder Mittelwerte auf ...
Stundenbasis Tagesbasis Wochenbasis
Monatsbasis Jahresbasis      Datenbasis: Original-Daten
Darstellen als:
Statistik (Auto) Statistik J:M      Darstellung:

Der gewünschte Datumsbereich war nicht gültig/verfügbar und wurde korrigiert....
Das angegebene Enddatum (11.09.2025 23:59:59) liegt in der Zukunft.
Das angegebene Startdatum (07.09.2025 00:00:00) liegt in der Zukunft.


Zur Graphik,    zurück zur Übersicht aller Sensoren.
 
Tabellarische Datenbersicht: ?
 
Sensor: Nr:Datum:Temp:Abs-Feuchte:Windchill:Wind:
Aussen-T/F 1 18-05-2022 02:00:00 14.9 C 11.09 g/m*3 14.9 C 0 km/h
2 18-05-2022 02:05:00 14.8 C 11.15 g/m*3 14.8 C 0 km/h
3 18-05-2022 02:10:00 14.8 C 11.15 g/m*3 14.8 C 0 km/h
4 18-05-2022 02:15:00 14.7 C 11.08 g/m*3 14.7 C 0 km/h
5 18-05-2022 02:20:00 14.7 C 11.08 g/m*3 14.7 C 0 km/h
6 18-05-2022 02:25:00 14.6 C 11.01 g/m*3 14.6 C 0 km/h
7 18-05-2022 02:30:00 14.6 C 11.01 g/m*3 14.6 C 0 km/h
8 18-05-2022 02:35:00 14.4 C 11 g/m*3 14.4 C 0 km/h
9 18-05-2022 02:40:00 14.4 C 11 g/m*3 14.4 C 0 km/h
10 18-05-2022 02:45:00 14.3 C 10.93 g/m*3 14.3 C 0 km/h
11 18-05-2022 02:50:00 14.3 C 10.93 g/m*3 14.3 C 0 km/h
12 18-05-2022 02:55:00 14.2 C 10.87 g/m*3 14.2 C 0 km/h
13 18-05-2022 03:00:00 14.1 C 10.8 g/m*3 14.1 C 0 km/h
14 18-05-2022 03:05:00 14.1 C 10.8 g/m*3 14.1 C 0 km/h
15 18-05-2022 03:10:00 14 C 10.86 g/m*3 14 C 0 km/h
16 18-05-2022 03:15:00 13.9 C 10.79 g/m*3 13.9 C 0 km/h
17 18-05-2022 03:20:00 13.8 C 10.72 g/m*3 13.8 C 0 km/h
18 18-05-2022 03:25:00 13.8 C 10.72 g/m*3 13.8 C 0 km/h
19 18-05-2022 03:30:00 13.7 C 10.66 g/m*3 13.7 C 0 km/h
20 18-05-2022 03:35:00 13.7 C 10.66 g/m*3 13.7 C 0 km/h
21 18-05-2022 03:40:00 13.6 C 10.71 g/m*3 13.6 C 0 km/h
22 18-05-2022 03:45:00 13.6 C 10.71 g/m*3 13.6 C 0 km/h
23 18-05-2022 03:50:00 13.6 C 10.71 g/m*3 13.6 C 0 km/h
24 18-05-2022 03:55:00 13.6 C 10.71 g/m*3 13.6 C 0 km/h
25 18-05-2022 04:00:00 13.7 C 10.78 g/m*3 13.7 C 0 km/h
Sensor: Nr:Datum:Temp:Abs-Feuchte:Windchill:Wind:
Aussen-T/F 26 18-05-2022 04:05:00 13.7 C 10.89 g/m*3 13.7 C 0 km/h
27 18-05-2022 04:10:00 13.6 C 10.83 g/m*3 13.6 C 0 km/h
28 18-05-2022 04:15:00 13.6 C 10.83 g/m*3 13.6 C 0 km/h
29 18-05-2022 04:20:00 13.5 C 10.76 g/m*3 13.5 C 0 km/h
30 18-05-2022 04:25:00 13.4 C 10.69 g/m*3 13.4 C 0 km/h
31 18-05-2022 04:30:00 13.4 C 10.58 g/m*3 13.4 C 0 km/h
32 18-05-2022 04:35:00 13.3 C 10.63 g/m*3 13.3 C 0 km/h
33 18-05-2022 04:40:00 13.3 C 10.63 g/m*3 13.3 C 0 km/h
34 18-05-2022 04:45:00 13.3 C 10.63 g/m*3 13.3 C 0 km/h
35 18-05-2022 04:50:00 13.3 C 10.63 g/m*3 13.3 C 0 km/h
36 18-05-2022 04:55:00 13.2 C 10.56 g/m*3 13.2 C 0 km/h
37 18-05-2022 05:00:00 13.2 C 10.56 g/m*3 13.2 C 0 km/h
38 18-05-2022 05:05:00 13.1 C 10.5 g/m*3 13.1 C 0 km/h
39 18-05-2022 05:10:00 13.1 C 10.5 g/m*3 13.1 C 0 km/h
40 18-05-2022 05:15:00 13.1 C 10.5 g/m*3 13.1 C 0 km/h
41 18-05-2022 05:20:00 13 C 10.43 g/m*3 13 C 0 km/h
42 18-05-2022 05:25:00 12.9 C 10.37 g/m*3 12.9 C 0 km/h
43 18-05-2022 05:30:00 12.8 C 10.3 g/m*3 12.8 C 0 km/h
44 18-05-2022 05:35:00 12.8 C 10.3 g/m*3 12.8 C 0 km/h
45 18-05-2022 05:40:00 12.7 C 10.24 g/m*3 12.7 C 0 km/h
46 18-05-2022 05:45:00 12.7 C 10.24 g/m*3 12.7 C 0 km/h
47 18-05-2022 05:50:00 12.7 C 10.24 g/m*3 12.7 C 0 km/h
48 18-05-2022 05:55:00 12.6 C 10.18 g/m*3 12.6 C 0 km/h
49 18-05-2022 06:00:00 12.6 C 10.29 g/m*3 12.6 C 0 km/h
50 18-05-2022 06:05:00 12.6 C 10.29 g/m*3 12.6 C 0 km/h
Sensor: Nr:Datum:Temp:Abs-Feuchte:Windchill:Wind:
Aussen-T/F 51 18-05-2022 06:10:00 12.5 C 10.22 g/m*3 12.5 C 0 km/h
52 18-05-2022 06:15:00 12.5 C 10.22 g/m*3 12.5 C 0 km/h
53 18-05-2022 06:20:00 12.5 C 10.22 g/m*3 12.5 C 0 km/h
54 18-05-2022 06:25:00 12.5 C 10.22 g/m*3 12.5 C 0 km/h
55 18-05-2022 06:30:00 12.5 C 10.22 g/m*3 12.5 C 0 km/h
56 18-05-2022 06:35:00 12.5 C 10.22 g/m*3 12.5 C 0 km/h
57 18-05-2022 06:40:00 12.6 C 10.29 g/m*3 12.6 C 0 km/h
58 18-05-2022 06:45:00 12.6 C 10.4 g/m*3 12.6 C 0 km/h
59 18-05-2022 06:50:00 12.7 C 10.46 g/m*3 12.7 C 0 km/h
60 18-05-2022 06:55:00 12.8 C 10.53 g/m*3 12.8 C 0 km/h
61 18-05-2022 07:00:00 12.9 C 10.59 g/m*3 12.9 C 0 km/h
62 18-05-2022 07:05:00 13.1 C 10.73 g/m*3 13.1 C 0 km/h
63 18-05-2022 07:10:00 13.2 C 10.91 g/m*3 13.2 C 0 km/h
64 18-05-2022 07:15:00 13.3 C 10.98 g/m*3 13.3 C 0 km/h
65 18-05-2022 07:20:00 13.4 C 11.04 g/m*3 13.4 C 0 km/h
66 18-05-2022 07:25:00 13.6 C 11.18 g/m*3 13.6 C 0 km/h
67 18-05-2022 07:30:00 13.6 C 11.18 g/m*3 13.6 C 0 km/h
68 18-05-2022 07:35:00 13.7 C 11.25 g/m*3 13.7 C 0 km/h
69 18-05-2022 07:40:00 13.8 C 11.32 g/m*3 13.8 C 0 km/h
70 18-05-2022 07:45:00 13.9 C 11.39 g/m*3 13.9 C 1.6 km/h
71 18-05-2022 07:50:00 14 C 11.46 g/m*3 14 C 0 km/h
72 18-05-2022 07:55:00 14.1 C 11.53 g/m*3 14.1 C 0 km/h
73 18-05-2022 08:00:00 14.2 C 11.6 g/m*3 14.2 C 0 km/h
74 18-05-2022 08:05:00 14.3 C 11.67 g/m*3 14.3 C 0 km/h
75 18-05-2022 08:10:00 14.4 C 11.74 g/m*3 14.4 C 0 km/h
Sensor: Nr:Datum:Temp:Abs-Feuchte:Windchill:Wind:
Aussen-T/F 76 18-05-2022 08:15:00 14.5 C 11.82 g/m*3 14.5 C 0 km/h
77 18-05-2022 08:20:00 14.6 C 11.89 g/m*3 14.6 C 0 km/h
78 18-05-2022 08:25:00 14.7 C 11.96 g/m*3 14.7 C 0 km/h
79 18-05-2022 08:30:00 14.9 C 12.11 g/m*3 14.9 C 0 km/h
80 18-05-2022 08:35:00 15 C 12.18 g/m*3 15 C 0 km/h
81 18-05-2022 08:40:00 15.1 C 12.26 g/m*3 15.1 C 0 km/h
82 18-05-2022 08:45:00 15.2 C 12.33 g/m*3 15.2 C 0 km/h
83 18-05-2022 08:50:00 15.3 C 12.41 g/m*3 15.3 C 0 km/h
84 18-05-2022 08:55:00 15.4 C 12.48 g/m*3 15.4 C 0 km/h
85 18-05-2022 09:00:00 15.5 C 12.56 g/m*3 15.5 C 0 km/h
86 18-05-2022 09:05:00 15.6 C 12.63 g/m*3 15.6 C 0 km/h
87 18-05-2022 09:10:00 15.7 C 12.71 g/m*3 15.7 C 0 km/h
88 18-05-2022 09:15:00 15.9 C 12.87 g/m*3 15.9 C 0 km/h
89 18-05-2022 09:20:00 16.1 C 13.02 g/m*3 16.1 C 0 km/h
90 18-05-2022 09:25:00 16.3 C 13.18 g/m*3 16.3 C 0 km/h
91 18-05-2022 09:30:00 16.4 C 13.12 g/m*3 16.4 C 0 km/h
92 18-05-2022 09:35:00 16.6 C 13.28 g/m*3 16.6 C 0 km/h
93 18-05-2022 09:40:00 16.7 C 13.36 g/m*3 16.7 C 0 km/h
94 18-05-2022 09:45:00 16.9 C 13.52 g/m*3 16.9 C 0 km/h
95 18-05-2022 09:50:00 17.1 C 13.68 g/m*3 17.1 C 0 km/h
96 18-05-2022 09:55:00 17.2 C 13.62 g/m*3 17.2 C 0 km/h
97 18-05-2022 10:00:00 17.4 C 13.78 g/m*3 17.4 C 0 km/h
98 18-05-2022 10:05:00 17.7 C 14.03 g/m*3 17.7 C 0 km/h
99 18-05-2022 10:10:00 18 C 14.28 g/m*3 18 C 3.2 km/h
100 18-05-2022 10:15:00 18.3 C 14.23 g/m*3 18.3 C 3.2 km/h
Sensor: Nr:Datum:Temp:Abs-Feuchte:Windchill:Wind:
Aussen-T/F 101 18-05-2022 10:20:00 18.6 C 14.48 g/m*3 18.6 C 0 km/h
102 18-05-2022 10:25:00 18.8 C 14.49 g/m*3 18.8 C 1.6 km/h
103 18-05-2022 10:30:00 19.1 C 14.59 g/m*3 19.1 C 1.6 km/h
104 18-05-2022 10:35:00 19.4 C 14.85 g/m*3 19.4 C 1.6 km/h
105 18-05-2022 10:40:00 19.8 C 15.03 g/m*3 19.8 C 1.6 km/h
106 18-05-2022 10:45:00 20.1 C 15.12 g/m*3 20.1 C 0 km/h
107 18-05-2022 10:50:00 20.4 C 15.21 g/m*3 20.4 C 0 km/h
108 18-05-2022 10:55:00 20.8 C 14.49 g/m*3 20.8 C 1.6 km/h
109 18-05-2022 11:00:00 21.3 C 15.1 g/m*3 21.3 C 1.6 km/h
110 18-05-2022 11:05:00 21.8 C 14.39 g/m*3 21.8 C 0 km/h
111 18-05-2022 11:10:00 22.6 C 14.06 g/m*3 22.6 C 3.2 km/h
112 18-05-2022 11:15:00 23.3 C 14.43 g/m*3 23.3 C 4.8 km/h
113 18-05-2022 11:20:00 24.1 C 14.66 g/m*3 24.1 C 3.2 km/h
114 18-05-2022 11:25:00 24.5 C 13.88 g/m*3 24.5 C 1.6 km/h
115 18-05-2022 11:30:00 24.9 C 13.96 g/m*3 24.9 C 4.8 km/h
116 18-05-2022 11:35:00 25.4 C 14.13 g/m*3 25.4 C 4.8 km/h
117 18-05-2022 11:40:00 25.9 C 15.01 g/m*3 25.9 C 8.1 km/h
118 18-05-2022 11:45:00 26.2 C 13.79 g/m*3 26.2 C 8.1 km/h
119 18-05-2022 11:50:00 26.4 C 13.69 g/m*3 26.4 C 4.8 km/h
120 18-05-2022 11:55:00 26.7 C 13.67 g/m*3 26.7 C 3.2 km/h
121 18-05-2022 12:00:00 26.9 C 14.08 g/m*3 26.9 C 3.2 km/h
122 18-05-2022 12:05:00 27.1 C 13.72 g/m*3 27.1 C 3.2 km/h
123 18-05-2022 12:10:00 27.3 C 13.87 g/m*3 27.3 C 6.4 km/h
124 18-05-2022 12:15:00 27.4 C 13.42 g/m*3 27.4 C 6.4 km/h
125 18-05-2022 12:20:00 27.6 C 12.77 g/m*3 27.6 C 6.4 km/h
Sensor: Nr:Datum:Temp:Abs-Feuchte:Windchill:Wind:
Aussen-T/F 126 18-05-2022 12:25:00 27.8 C 12.64 g/m*3 27.8 C 3.2 km/h
127 18-05-2022 12:30:00 28 C 13.6 g/m*3 28 C 4.8 km/h
128 18-05-2022 12:35:00 28.1 C 12.58 g/m*3 28.1 C 3.2 km/h
129 18-05-2022 12:40:00 28.2 C 12.65 g/m*3 28.2 C 4.8 km/h
130 18-05-2022 12:45:00 28.3 C 13.55 g/m*3 28.3 C 8.1 km/h
131 18-05-2022 12:50:00 28.4 C 12.23 g/m*3 28.4 C 6.4 km/h
132 18-05-2022 12:55:00 28.6 C 12.37 g/m*3 28.6 C 11.3 km/h
133 18-05-2022 13:00:00 28.7 C 12.72 g/m*3 28.7 C 11.3 km/h

Legende:
   Min
   Max


Maximal/Minimal-Werte vom 18.05.2022 - 18.05.2022

Sensor Min Max Avg
Temp
(Aussen-T/F)
12.5 °C
18-05-2022  06:10:00
28.7 °C
18-05-2022  13:00:00
16.75 °C
Abs-Feuchte
(Aussen-T/F)
10.18 g/m*3
18-05-2022  05:55:00
15.21 g/m*3
18-05-2022  10:50:00
11.86 g/m*3
Windchill
(Aussen-T/F)
12.5 C
18-05-2022  06:10:00
28.7 C
18-05-2022  13:00:00
16.62 C

Die Daten stammen von einer Davis Vantage Pro 2 Wetter-Station und werden unter Linux mit der Software wview2wettercgi und aufbereitet. Alle Angaben erfolgen ohne Gewähr für ihre Vollständigkeit oder Richtigkeit.
Kontakt: Rainer Krienke krienke@uni-koblenz.de . Meine Webseiten an der Uni Koblenz oder privat.
Version: $Revision: 0.78 $